Pullman Moscow Regional Airport
KPUW : rendu visible

Aérodrome :











RETROUVEZ-NOUS SUR...

 
LOGIN :

S'inscrire | Disclaimer

   EN    FR    IT 

 









Légende :    VFR   VFR Marginal   IFR   IFR Intensif   IFR Très Intensif
Visi : 
Plafond : 
>= 8 km
>= 3000ft
5 à 8 km
1000 à 3000 ft
1500m à 5 km
500 à 1000 ft
800 à 1500m
200 à 500 ft
< 800m
< 200 ft
Symboles :   Orages  Brouillard  Fortes neiges  Fortes précipitations  Vent > 20 kt






- Altitude de l'aérodrome : 2556 ft
- Code IATA : PUW


KPUW - Pullman Moscow Regional

DERNIER METAR :
  • 171153Z AUTO 10011KT 10SM -RA SCT040 SCT065 BKN100 07/03 A3019 RMK AO2 RAB42 SLP230 P0000 60000 T00720028 10072 20067 56020

METARs EXPIRÉS :
  • 171053Z AUTO 10008KT 10SM OVC065 07/03 A3021 RMK AO2 SLP239 T00720028
  • 170953Z AUTO 10010KT 10SM BKN046 OVC065 07/03 A3022 RMK AO2 SLP240 T00720028

TAF KPUW
Valide du 17 à 12h jusqu'au 18 à 12h UTC


171133Z 1712/1812 11010KT P6SM OVC060
FM171400 13006KT P6SM VCSH BKN060 OVC100
FM171700 17008KT P6SM -SHRA OVC040
FM172100 22008KT P6SM OVC050
FM180300 20006KT P6SM SCT050



MET'MAP, la Météo Aéronautique d'un coup d'oeil ! - Copyright ORBIFLY Décembre 2007 - Disclaimer

ORBIFLY MET'MAP TEAM :

Programmation & Développement : Alexandra Zaïnal
Conception & Développement : Baudouin d'Aumeries
Co-Programmation & Développement : Marc-Olivier Méhu
Soutien technique & logistique : Manuel Goepfert

Contact : metmap@orbifly.com




SOURCES & CREDITS :

   NOAA       Earth
Advisory